Time;durP1;ratioP1;P1;durP2;ratioP2;P2;SDS_P1;SDS_P2;PMS_P1;PMS_P2;Temp;Humidity;BMP_temperature;BMP_pressure;BME280_temperature;BME280_humidity;BME280_pressure;Samples;Min_cycle;Max_cycle;Signal;HPM_P1;HPM_P2
2024/04/14 00:02:50;;;;;;;6.18;5.57;;;;;;;;;;11193075;25;20030;-65
2024/04/14 00:07:50;;;;;;;8.10;4.90;;;;;;;;;;11190926;25;20030;-65
2024/04/14 00:12:51;;;;;;;8.00;5.82;;;;;;;;;;11195545;25;20029;-66
2024/04/14 00:17:54;;;;;;;8.32;6.18;;;;;;;;;;11185816;25;20042;-65
2024/04/14 00:22:55;;;;;;;8.23;5.70;;;;;;;;;;11184521;25;20034;-66
2024/04/14 00:27:55;;;;;;;10.35;5.45;;;;;;;;;;11180005;25;20034;-65
2024/04/14 00:32:58;;;;;;;10.82;5.90;;;;;;;;;;11193530;25;20042;-65
2024/04/14 00:37:59;;;;;;;8.05;5.03;;;;;;;;;;11190404;25;20038;-64
2024/04/14 00:42:59;;;;;;;9.45;5.55;;;;;;;;;;11191714;25;20041;-66
2024/04/14 00:48:03;;;;;;;7.60;5.40;;;;;;;;;;11193848;25;20040;-65
2024/04/14 00:53:04;;;;;;;8.95;5.10;;;;;;;;;;11192152;25;20034;-64
2024/04/14 00:58:05;;;;;;;7.22;4.95;;;;;;;;;;11192192;25;20699;-66
2024/04/14 01:03:08;;;;;;;6.93;5.05;;;;;;;;;;11190980;25;20033;-66
2024/04/14 01:08:09;;;;;;;8.73;5.73;;;;;;;;;;11189599;25;20042;-66
2024/04/14 01:13:09;;;;;;;11.80;5.88;;;;;;;;;;11193238;25;20034;-65
2024/04/14 01:18:13;;;;;;;8.02;5.90;;;;;;;;;;11192453;25;20030;-65
2024/04/14 01:23:14;;;;;;;8.25;5.80;;;;;;;;;;11184953;25;20026;-67
2024/04/14 01:28:17;;;;;;;10.95;5.57;;;;;;;;;;11190156;25;20472;-66
2024/04/14 01:33:18;;;;;;;8.13;5.90;;;;;;;;;;11185075;25;20080;-64
2024/04/14 01:38:18;;;;;;;14.65;6.35;;;;;;;;;;11193906;25;20026;-66
2024/04/14 01:43:29;;;;;;;9.10;5.30;;;;;;;;;;11186603;25;20033;-64
2024/04/14 01:48:31;;;;;;;13.80;6.43;;;;;;;;;;11189868;25;20029;-66
2024/04/14 01:53:32;;;;;;;10.15;5.55;;;;;;;;;;11187255;25;20037;-65
2024/04/14 01:58:36;;;;;;;8.48;5.60;;;;;;;;;;11189937;25;20038;-64
2024/04/14 02:03:41;;;;;;;8.48;5.85;;;;;;;;;;11188156;25;20034;-65
2024/04/14 02:08:42;;;;;;;7.93;5.03;;;;;;;;;;11186790;25;20563;-65
2024/04/14 02:13:45;;;;;;;7.65;5.55;;;;;;;;;;11190905;25;20531;-65
2024/04/14 02:18:45;;;;;;;9.90;5.47;;;;;;;;;;11201336;25;20390;-65
2024/04/14 02:23:46;;;;;;;9.70;5.85;;;;;;;;;;11194791;25;20022;-65
2024/04/14 02:28:49;;;;;;;7.13;5.47;;;;;;;;;;11189039;25;20038;-65
2024/04/14 02:33:49;;;;;;;9.10;5.32;;;;;;;;;;11188094;25;20037;-67
2024/04/14 02:38:49;;;;;;;13.25;5.72;;;;;;;;;;11191908;25;20025;-67
2024/04/14 02:43:52;;;;;;;9.65;5.40;;;;;;;;;;11181493;25;20039;-66
2024/04/14 02:48:53;;;;;;;6.50;4.78;;;;;;;;;;11179352;25;20553;-66
2024/04/14 02:53:53;;;;;;;6.70;4.90;;;;;;;;;;11189103;25;20027;-65
2024/04/14 02:58:56;;;;;;;9.35;5.10;;;;;;;;;;11180817;25;20018;-65
2024/04/14 03:03:57;;;;;;;8.93;4.65;;;;;;;;;;11178052;25;20374;-66
2024/04/14 03:08:57;;;;;;;5.57;4.40;;;;;;;;;;11181994;25;20718;-67
2024/04/14 03:14:00;;;;;;;11.95;4.38;;;;;;;;;;11188453;25;20467;-66
2024/04/14 03:19:01;;;;;;;4.75;4.13;;;;;;;;;;11188523;25;20047;-66
2024/04/14 03:24:01;;;;;;;6.82;4.82;;;;;;;;;;11187891;25;20490;-66
2024/04/14 03:29:05;;;;;;;7.03;4.53;;;;;;;;;;11190985;25;20021;-66
2024/04/14 03:34:05;;;;;;;10.48;5.38;;;;;;;;;;11184779;25;20035;-64
2024/04/14 03:39:05;;;;;;;9.57;4.40;;;;;;;;;;11186124;25;20487;-65
2024/04/14 03:44:08;;;;;;;5.70;4.18;;;;;;;;;;11188432;25;20021;-67
2024/04/14 03:49:09;;;;;;;5.78;4.18;;;;;;;;;;11181437;25;20030;-66
2024/04/14 03:54:10;;;;;;;8.27;4.38;;;;;;;;;;11185651;25;20026;-65
2024/04/14 03:59:13;;;;;;;6.60;4.18;;;;;;;;;;11182408;25;20025;-65
2024/04/14 04:04:14;;;;;;;6.10;4.63;;;;;;;;;;11183495;25;20021;-65
2024/04/14 04:09:14;;;;;;;7.32;4.30;;;;;;;;;;11182714;25;20034;-65
2024/04/14 04:14:17;;;;;;;9.48;4.63;;;;;;;;;;11192246;25;20037;-65
2024/04/14 04:19:18;;;;;;;6.28;4.80;;;;;;;;;;11194963;25;20384;-66
2024/04/14 04:24:27;;;;;;;3.95;3.65;;;;;;;;;;11193703;25;20022;-65
2024/04/14 04:29:31;;;;;;;6.18;3.95;;;;;;;;;;11192584;25;20041;-65
2024/04/14 04:34:31;;;;;;;11.65;5.07;;;;;;;;;;11190980;25;20030;-65
2024/04/14 04:39:31;;;;;;;6.40;4.82;;;;;;;;;;11193692;25;20030;-64
2024/04/14 04:44:34;;;;;;;6.55;4.13;;;;;;;;;;11193663;25;20475;-65
2024/04/14 04:49:35;;;;;;;8.23;5.00;;;;;;;;;;11192220;25;20026;-65
2024/04/14 04:54:35;;;;;;;10.75;5.07;;;;;;;;;;11190299;25;20471;-65
2024/04/14 04:59:38;;;;;;;8.10;4.38;;;;;;;;;;11191550;25;20034;-64
2024/04/14 05:04:38;;;;;;;12.52;5.88;;;;;;;;;;11187750;25;20092;-64
2024/04/14 05:09:38;;;;;;;7.93;3.95;;;;;;;;;;11190343;25;20374;-64
2024/04/14 05:14:42;;;;;;;9.85;4.40;;;;;;;;;;11187642;25;20515;-65
2024/04/14 05:19:42;;;;;;;5.68;4.35;;;;;;;;;;11196446;25;20027;-65
2024/04/14 05:24:45;;;;;;;7.68;4.63;;;;;;;;;;11188082;25;20381;-65
2024/04/14 05:29:48;;;;;;;7.47;4.60;;;;;;;;;;11190775;25;20033;-65
2024/04/14 05:34:52;;;;;;;7.80;4.85;;;;;;;;;;11184492;25;20030;-65
2024/04/14 05:39:53;;;;;;;7.93;4.97;;;;;;;;;;11188453;25;20030;-65
2024/04/14 05:44:56;;;;;;;8.75;4.90;;;;;;;;;;11194034;25;20474;-65
2024/04/14 05:49:57;;;;;;;6.38;4.78;;;;;;;;;;11185174;25;20477;-65
2024/04/14 05:55:00;;;;;;;14.37;5.03;;;;;;;;;;11192395;25;20026;-65
2024/04/14 06:00:03;;;;;;;7.70;4.85;;;;;;;;;;11192029;25;20360;-65
2024/04/14 06:05:13;;;;;;;6.97;4.68;;;;;;;;;;11190676;25;20025;-66
2024/04/14 06:10:13;;;;;;;9.65;4.80;;;;;;;;;;11193628;25;20033;-65
2024/04/14 06:15:16;;;;;;;10.88;4.53;;;;;;;;;;11191741;25;20029;-65
2024/04/14 06:20:16;;;;;;;9.43;3.80;;;;;;;;;;11190002;25;20025;-65
2024/04/14 06:25:17;;;;;;;11.82;4.90;;;;;;;;;;11186043;25;20025;-63
2024/04/14 06:30:20;;;;;;;5.70;4.55;;;;;;;;;;11200789;25;20022;-65
2024/04/14 06:35:20;;;;;;;6.60;4.22;;;;;;;;;;11191275;25;20269;-65
2024/04/14 06:40:20;;;;;;;9.32;5.20;;;;;;;;;;11192520;25;20038;-66
2024/04/14 06:45:23;;;;;;;5.55;4.65;;;;;;;;;;11180383;25;20281;-65
2024/04/14 06:50:24;;;;;;;7.65;5.68;;;;;;;;;;11186310;25;19998;-65
2024/04/14 06:55:24;;;;;;;6.22;5.60;;;;;;;;;;11190199;25;20033;-65
2024/04/14 07:00:27;;;;;;;8.35;5.50;;;;;;;;;;11201440;25;19997;-65
2024/04/14 07:05:28;;;;;;;12.10;6.72;;;;;;;;;;11182712;25;19994;-65
2024/04/14 07:10:28;;;;;;;12.18;5.65;;;;;;;;;;11187127;25;20376;-65
2024/04/14 07:15:31;;;;;;;7.45;6.22;;;;;;;;;;11189365;25;20033;-65
2024/04/14 07:20:31;;;;;;;6.47;4.90;;;;;;;;;;11189774;25;20484;-65
2024/04/14 07:25:32;;;;;;;11.35;5.43;;;;;;;;;;11183609;25;20476;-65
2024/04/14 07:30:35;;;;;;;8.73;5.40;;;;;;;;;;11190344;25;20477;-65
2024/04/14 07:35:36;;;;;;;6.40;5.57;;;;;;;;;;11190723;25;20026;-66
2024/04/14 07:40:36;;;;;;;7.55;5.93;;;;;;;;;;11174491;25;20295;-66
2024/04/14 07:45:39;;;;;;;7.82;4.97;;;;;;;;;;11180503;25;20033;-66
2024/04/14 07:50:44;;;;;;;8.82;5.05;;;;;;;;;;11185521;25;20528;-67
2024/04/14 07:55:44;;;;;;;5.78;4.50;;;;;;;;;;11178826;25;20016;-66
2024/04/14 08:00:47;;;;;;;7.88;4.35;;;;;;;;;;11196375;25;20022;-66
2024/04/14 08:05:48;;;;;;;12.18;4.95;;;;;;;;;;11187478;25;20056;-66
2024/04/14 08:10:48;;;;;;;5.50;4.15;;;;;;;;;;11187180;25;19997;-65
2024/04/14 08:15:51;;;;;;;7.13;4.57;;;;;;;;;;11183789;25;20012;-65
2024/04/14 08:20:58;;;;;;;7.70;4.75;;;;;;;;;;11187709;25;19998;-65
2024/04/14 08:25:58;;;;;;;7.75;5.28;;;;;;;;;;11195783;25;20026;-65
2024/04/14 08:31:01;;;;;;;9.82;4.70;;;;;;;;;;11193854;25;20034;-65
2024/04/14 08:36:02;;;;;;;5.40;3.90;;;;;;;;;;11191453;25;20035;-65
2024/04/14 08:41:02;;;;;;;10.68;3.95;;;;;;;;;;11192685;25;20037;-65
2024/04/14 08:46:05;;;;;;;8.32;3.83;;;;;;;;;;11189004;25;20492;-65
2024/04/14 08:51:06;;;;;;;6.03;3.70;;;;;;;;;;11193462;25;20046;-65
2024/04/14 08:56:07;;;;;;;6.35;4.20;;;;;;;;;;11191400;25;20038;-66
2024/04/14 09:01:12;;;;;;;4.80;3.78;;;;;;;;;;11193452;25;20483;-66
2024/04/14 09:06:14;;;;;;;5.70;3.47;;;;;;;;;;11192911;25;20030;-66
2024/04/14 09:11:14;;;;;;;9.02;3.58;;;;;;;;;;11195216;25;20022;-66
2024/04/14 09:16:19;;;;;;;6.70;3.55;;;;;;;;;;11191579;25;20025;-66
2024/04/14 09:21:20;;;;;;;7.03;3.40;;;;;;;;;;11190701;25;20030;-66
2024/04/14 09:26:28;;;;;;;9.63;3.20;;;;;;;;;;11187239;25;20033;-66
2024/04/14 09:31:31;;;;;;;4.13;3.17;;;;;;;;;;11189589;25;20034;-66
2024/04/14 09:36:32;;;;;;;4.43;3.30;;;;;;;;;;11186421;25;20372;-65
2024/04/14 09:41:32;;;;;;;6.95;3.33;;;;;;;;;;11190132;25;20064;-67
2024/04/14 09:46:37;;;;;;;4.60;3.03;;;;;;;;;;11187972;25;20033;-64
2024/04/14 09:51:38;;;;;;;7.50;3.85;;;;;;;;;;11188823;25;20180;-66
2024/04/14 09:56:38;;;;;;;6.07;3.28;;;;;;;;;;11195565;25;20041;-64
2024/04/14 10:01:42;;;;;;;5.05;3.10;;;;;;;;;;11193842;25;20027;-65
2024/04/14 10:06:43;;;;;;;8.63;2.72;;;;;;;;;;11198549;25;20507;-66
2024/04/14 10:11:45;;;;;;;5.70;2.67;;;;;;;;;;11207555;25;20021;-65
2024/04/14 10:16:57;;;;;;;5.80;3.30;;;;;;;;;;11206535;25;20377;-66
2024/04/14 10:22:03;;;;;;;4.25;2.60;;;;;;;;;;11197643;25;20056;-65
2024/04/14 10:27:10;;;;;;;5.57;2.80;;;;;;;;;;11194187;25;20026;-65
2024/04/14 10:32:14;;;;;;;4.85;2.80;;;;;;;;;;11198139;25;20041;-66
2024/04/14 10:37:23;;;;;;;6.68;3.25;;;;;;;;;;11193601;25;20049;-66
2024/04/14 10:42:24;;;;;;;4.53;3.45;;;;;;;;;;11184945;25;20038;-67
2024/04/14 10:47:27;;;;;;;5.68;3.00;;;;;;;;;;11188815;25;20037;-66
2024/04/14 10:52:27;;;;;;;4.43;2.93;;;;;;;;;;11193342;26;20026;-66
2024/04/14 10:57:29;;;;;;;6.55;3.45;;;;;;;;;;11192499;26;20009;-66
2024/04/14 11:02:32;;;;;;;3.33;2.40;;;;;;;;;;11190707;26;20033;-66
2024/04/14 11:07:32;;;;;;;6.88;3.45;;;;;;;;;;11194538;26;20373;-66
2024/04/14 11:12:33;;;;;;;9.40;2.72;;;;;;;;;;11187273;25;20034;-65
2024/04/14 11:17:36;;;;;;;6.03;2.67;;;;;;;;;;11184877;25;20022;-65
2024/04/14 11:22:37;;;;;;;6.22;2.42;;;;;;;;;;11187585;25;20035;-66
2024/04/14 11:27:39;;;;;;;3.67;2.53;;;;;;;;;;11182031;25;20026;-66
2024/04/14 11:32:42;;;;;;;6.47;2.72;;;;;;;;;;11188063;25;20365;-66
2024/04/14 11:37:45;;;;;;;5.07;2.80;;;;;;;;;;11187571;25;20475;-67
2024/04/14 11:42:46;;;;;;;7.83;2.50;;;;;;;;;;11185557;25;20021;-67
2024/04/14 11:47:50;;;;;;;3.45;2.38;;;;;;;;;;11187381;25;20038;-67
2024/04/14 11:52:52;;;;;;;4.87;2.83;;;;;;;;;;11186956;25;20480;-65
2024/04/14 11:57:53;;;;;;;6.60;3.05;;;;;;;;;;11194770;25;20030;-66
2024/04/14 12:02:56;;;;;;;7.07;2.53;;;;;;;;;;11187191;25;20034;-65
2024/04/14 12:07:56;;;;;;;4.10;2.77;;;;;;;;;;11187103;25;20026;-66
2024/04/14 12:12:56;;;;;;;4.95;2.97;;;;;;;;;;11193835;25;20376;-66
2024/04/14 12:18:00;;;;;;;6.00;2.75;;;;;;;;;;11193186;25;20041;-66
2024/04/14 12:23:00;;;;;;;5.20;2.70;;;;;;;;;;11189699;25;20507;-65
2024/04/14 12:28:00;;;;;;;3.55;2.35;;;;;;;;;;11187700;25;20033;-67
2024/04/14 12:33:04;;;;;;;6.38;2.25;;;;;;;;;;11189101;25;20049;-66
2024/04/14 12:38:04;;;;;;;4.70;2.43;;;;;;;;;;11220851;25;20042;-66
2024/04/14 12:43:04;;;;;;;6.30;2.00;;;;;;;;;;11205118;25;20042;-66
2024/04/14 12:48:08;;;;;;;2.60;2.10;;;;;;;;;;11217075;25;20029;-66
2024/04/14 12:53:10;;;;;;;5.32;2.50;;;;;;;;;;11203403;25;20039;-66
2024/04/14 12:58:10;;;;;;;5.00;2.40;;;;;;;;;;11207336;25;20346;-66
2024/04/14 13:03:13;;;;;;;7.72;2.60;;;;;;;;;;11191554;25;20021;-66
2024/04/14 13:08:14;;;;;;;7.00;2.27;;;;;;;;;;11200045;25;20100;-66
2024/04/14 13:13:14;;;;;;;2.78;2.35;;;;;;;;;;11193853;25;20035;-66
2024/04/14 13:18:18;;;;;;;3.63;2.35;;;;;;;;;;11195270;25;20029;-66
2024/04/14 13:23:20;;;;;;;4.77;2.40;;;;;;;;;;11190215;25;20026;-66
2024/04/14 13:28:21;;;;;;;4.28;2.53;;;;;;;;;;11193104;25;20072;-66
2024/04/14 13:33:24;;;;;;;5.85;2.30;;;;;;;;;;11193468;25;20484;-65
2024/04/14 13:38:24;;;;;;;2.80;2.58;;;;;;;;;;11190837;25;20030;-66
2024/04/14 13:43:25;;;;;;;3.50;2.15;;;;;;;;;;11189033;25;20380;-66
2024/04/14 13:48:28;;;;;;;3.08;2.10;;;;;;;;;;11191522;25;20026;-66
2024/04/14 13:53:28;;;;;;;3.13;2.43;;;;;;;;;;11181316;25;20773;-66
2024/04/14 13:58:29;;;;;;;5.10;3.00;;;;;;;;;;11178566;25;19994;-66
2024/04/14 14:03:32;;;;;;;3.22;2.58;;;;;;;;;;11182333;25;20480;-66
2024/04/14 14:08:32;;;;;;;5.60;2.60;;;;;;;;;;11188707;25;20033;-66
2024/04/14 14:13:33;;;;;;;5.72;3.08;;;;;;;;;;11187477;25;20053;-65
2024/04/14 14:18:36;;;;;;;4.10;2.42;;;;;;;;;;11186663;25;20026;-66
2024/04/14 14:23:37;;;;;;;4.30;2.47;;;;;;;;;;11187058;25;20061;-66
2024/04/14 14:28:37;;;;;;;2.83;2.17;;;;;;;;;;11190539;25;20046;-66
2024/04/14 14:38:57;;;;;;;5.38;3.03;;;;;;;;;;11187756;25;20042;-65
2024/04/14 14:43:57;;;;;;;5.38;2.50;;;;;;;;;;11198332;25;20034;-66
2024/04/14 14:49:01;;;;;;;6.18;3.17;;;;;;;;;;11191722;25;20052;-66
2024/04/14 14:54:03;;;;;;;5.88;2.58;;;;;;;;;;11190935;25;20026;-66
2024/04/14 14:59:03;;;;;;;3.65;2.38;;;;;;;;;;11193506;25;20064;-66
2024/04/14 15:04:06;;;;;;;5.80;3.53;;;;;;;;;;11188781;25;20029;-66
2024/04/14 15:09:06;;;;;;;5.95;2.83;;;;;;;;;;11191063;25;20491;-66
2024/04/14 15:14:07;;;;;;;2.90;2.40;;;;;;;;;;11187900;25;20025;-66
2024/04/14 15:19:10;;;;;;;3.05;2.72;;;;;;;;;;11180628;25;20037;-66
2024/04/14 15:24:10;;;;;;;4.50;2.50;;;;;;;;;;11182380;25;20026;-66
2024/04/14 15:29:10;;;;;;;7.15;3.67;;;;;;;;;;11182863;25;20037;-65
2024/04/14 15:34:13;;;;;;;8.75;3.40;;;;;;;;;;11188173;25;20034;-66
2024/04/14 15:39:14;;;;;;;7.63;3.27;;;;;;;;;;11182589;25;20375;-66
2024/04/14 15:44:14;;;;;;;4.00;3.00;;;;;;;;;;11185703;25;20092;-66
2024/04/14 15:49:28;;;;;;;4.97;2.85;;;;;;;;;;11176162;25;20035;-66
2024/04/14 15:54:28;;;;;;;8.20;4.20;;;;;;;;;;11178171;25;20488;-66
2024/04/14 15:59:29;;;;;;;5.88;3.97;;;;;;;;;;11177290;25;20039;-66
2024/04/14 16:04:32;;;;;;;9.65;4.38;;;;;;;;;;11178994;25;20038;-66
2024/04/14 16:09:32;;;;;;;9.97;7.77;;;;;;;;;;11182528;25;20035;-66
2024/04/14 16:14:32;;;;;;;16.00;13.98;;;;;;;;;;11190510;25;20494;-66
2024/04/14 16:19:35;;;;;;;5.15;2.25;;;;;;;;;;11198285;25;20033;-66
2024/04/14 16:24:35;;;;;;;6.30;2.60;;;;;;;;;;11194193;25;20025;-66
2024/04/14 16:29:36;;;;;;;9.40;3.17;;;;;;;;;;11194822;25;20029;-66
2024/04/14 16:34:39;;;;;;;9.20;3.67;;;;;;;;;;11192155;25;20480;-65
2024/04/14 16:39:42;;;;;;;11.38;3.05;;;;;;;;;;11186596;25;20249;-66
2024/04/14 16:44:43;;;;;;;2.93;2.67;;;;;;;;;;11191513;25;20037;-65
2024/04/14 16:49:46;;;;;;;9.20;3.60;;;;;;;;;;11188221;25;20038;-65
2024/04/14 16:54:46;;;;;;;3.00;2.77;;;;;;;;;;11188209;25;20034;-65
2024/04/14 16:59:47;;;;;;;6.22;5.57;;;;;;;;;;11193805;25;20030;-65
2024/04/14 17:04:50;;;;;;;6.65;3.13;;;;;;;;;;11189990;25;20029;-66
2024/04/14 17:09:50;;;;;;;4.70;2.73;;;;;;;;;;11190914;25;20026;-66
2024/04/14 17:14:50;;;;;;;6.40;3.40;;;;;;;;;;11193477;25;20032;-66
2024/04/14 17:19:55;;;;;;;5.13;3.13;;;;;;;;;;11192221;25;20021;-66
2024/04/14 17:24:56;;;;;;;5.20;3.60;;;;;;;;;;11193189;25;20022;-66
2024/04/14 17:29:56;;;;;;;5.05;3.55;;;;;;;;;;11202111;25;20037;-65
2024/04/14 17:34:59;;;;;;;6.50;3.08;;;;;;;;;;11194118;25;20005;-65
2024/04/14 17:39:59;;;;;;;5.18;3.10;;;;;;;;;;11198930;25;20034;-65
2024/04/14 17:45:05;;;;;;;6.13;3.20;;;;;;;;;;11187448;25;20026;-64
2024/04/14 17:50:08;;;;;;;4.75;2.45;;;;;;;;;;11201062;25;20025;-65
2024/04/14 17:55:09;;;;;;;3.33;2.70;;;;;;;;;;11203634;25;20025;-65
2024/04/14 18:00:12;;;;;;;4.80;2.70;;;;;;;;;;11206017;25;20030;-65
2024/04/14 18:05:15;;;;;;;3.97;2.30;;;;;;;;;;11198841;25;20030;-65
2024/04/14 18:10:15;;;;;;;3.58;2.40;;;;;;;;;;11195512;25;20026;-65
2024/04/14 18:15:15;;;;;;;5.32;2.33;;;;;;;;;;11179393;25;20030;-64
2024/04/14 18:20:19;;;;;;;5.82;2.85;;;;;;;;;;11199011;25;20037;-64
2024/04/14 18:25:19;;;;;;;4.47;2.50;;;;;;;;;;11189696;25;20029;-65
2024/04/14 18:30:20;;;;;;;3.47;2.83;;;;;;;;;;11183648;25;20026;-65
2024/04/14 18:35:23;;;;;;;3.20;2.25;;;;;;;;;;11182700;25;20850;-65
2024/04/14 18:40:23;;;;;;;5.68;2.90;;;;;;;;;;11184379;25;19997;-65
2024/04/14 18:45:24;;;;;;;9.40;2.72;;;;;;;;;;11190231;25;20005;-65
2024/04/14 18:50:27;;;;;;;4.45;2.25;;;;;;;;;;11195616;25;20034;-65
2024/04/14 18:55:27;;;;;;;10.82;2.90;;;;;;;;;;11181102;25;20026;-65
2024/04/14 19:00:27;;;;;;;8.63;2.55;;;;;;;;;;11186904;25;20370;-65
2024/04/14 19:05:30;;;;;;;8.18;2.00;;;;;;;;;;11182791;25;20037;-65
2024/04/14 19:10:31;;;;;;;3.58;2.17;;;;;;;;;;11180293;25;20034;-65
2024/04/14 19:15:31;;;;;;;3.17;2.60;;;;;;;;;;11183944;25;20029;-66
2024/04/14 19:20:34;;;;;;;9.07;2.40;;;;;;;;;;11182920;25;20046;-65
2024/04/14 19:25:34;;;;;;;4.83;2.30;;;;;;;;;;11179647;25;20030;-64
2024/04/14 19:30:35;;;;;;;4.57;2.40;;;;;;;;;;11191216;25;19999;-65
2024/04/14 19:35:38;;;;;;;3.45;2.33;;;;;;;;;;11185880;25;20370;-64
2024/04/14 19:40:54;;;;;;;3.53;2.33;;;;;;;;;;11179998;25;19997;-65
2024/04/14 19:45:54;;;;;;;9.85;2.78;;;;;;;;;;11189271;25;20455;-65
2024/04/14 19:50:57;;;;;;;5.28;2.33;;;;;;;;;;11189836;25;20004;-65
2024/04/14 19:55:58;;;;;;;7.38;2.72;;;;;;;;;;11190686;25;19998;-65
2024/04/14 20:00:59;;;;;;;8.00;2.20;;;;;;;;;;11197737;25;20046;-65
2024/04/14 20:06:02;;;;;;;6.47;3.00;;;;;;;;;;11192051;25;20044;-65
2024/04/14 20:11:02;;;;;;;4.30;2.40;;;;;;;;;;11194874;25;20131;-65
2024/04/14 20:16:03;;;;;;;6.25;2.67;;;;;;;;;;11193464;25;20620;-66
2024/04/14 20:21:06;;;;;;;4.53;2.47;;;;;;;;;;11193183;25;20041;-66
2024/04/14 20:26:06;;;;;;;3.63;2.60;;;;;;;;;;11191765;25;20045;-65
2024/04/14 20:31:07;;;;;;;4.53;2.60;;;;;;;;;;11191744;25;20034;-65
2024/04/14 20:36:11;;;;;;;5.40;2.13;;;;;;;;;;11193058;25;20033;-65
2024/04/14 20:41:12;;;;;;;2.38;2.17;;;;;;;;;;11190778;25;20026;-65
2024/04/14 20:46:12;;;;;;;5.65;2.75;;;;;;;;;;11192594;25;20030;-66
2024/04/14 20:51:15;;;;;;;5.38;2.28;;;;;;;;;;11189917;25;20030;-66
2024/04/14 20:56:15;;;;;;;3.00;2.10;;;;;;;;;;11197054;25;20047;-66
2024/04/14 21:01:16;;;;;;;3.17;2.08;;;;;;;;;;11194783;25;20034;-65
2024/04/14 21:06:19;;;;;;;8.73;2.60;;;;;;;;;;11191410;25;20383;-65
2024/04/14 21:11:19;;;;;;;4.38;2.90;;;;;;;;;;11193767;25;20488;-66
2024/04/14 21:16:20;;;;;;;6.00;2.35;;;;;;;;;;11187488;25;20037;-66
2024/04/14 21:21:23;;;;;;;5.20;2.55;;;;;;;;;;11193003;25;20038;-66
2024/04/14 21:26:23;;;;;;;2.17;1.95;;;;;;;;;;11191974;25;20034;-66
2024/04/14 21:31:25;;;;;;;5.45;2.28;;;;;;;;;;11190043;25;20471;-66
2024/04/14 21:36:28;;;;;;;4.45;2.25;;;;;;;;;;11191156;25;20023;-66
2024/04/14 21:41:28;;;;;;;5.88;2.72;;;;;;;;;;11189990;25;20022;-66
2024/04/14 21:46:28;;;;;;;7.65;2.80;;;;;;;;;;11193886;25;20033;-66
2024/04/14 21:51:31;;;;;;;2.63;2.10;;;;;;;;;;11179607;25;20034;-66
2024/04/14 21:56:32;;;;;;;2.55;1.98;;;;;;;;;;11201305;25;20026;-65
2024/04/14 22:01:33;;;;;;;6.05;2.28;;;;;;;;;;11188122;25;20026;-65
2024/04/14 22:06:36;;;;;;;5.40;2.67;;;;;;;;;;11187882;25;20038;-65
2024/04/14 22:11:36;;;;;;;6.22;2.85;;;;;;;;;;11186986;25;20034;-65
2024/04/14 22:16:36;;;;;;;5.13;2.22;;;;;;;;;;11190543;25;20033;-65
2024/04/14 22:21:39;;;;;;;5.15;2.67;;;;;;;;;;11190826;25;20032;-65
2024/04/14 22:26:40;;;;;;;5.05;2.47;;;;;;;;;;11186560;25;20038;-64
2024/04/14 22:31:41;;;;;;;4.57;2.22;;;;;;;;;;11193899;25;20030;-64
2024/04/14 22:36:44;;;;;;;3.65;2.15;;;;;;;;;;11187782;25;20376;-64
2024/04/14 22:41:44;;;;;;;2.35;1.98;;;;;;;;;;11190616;25;20029;-64
2024/04/14 22:46:44;;;;;;;7.28;2.17;;;;;;;;;;11185761;25;20038;-65
2024/04/14 22:51:47;;;;;;;3.30;1.80;;;;;;;;;;11191286;25;20042;-65
2024/04/14 22:56:48;;;;;;;2.72;2.22;;;;;;;;;;11193360;25;20025;-65
2024/04/14 23:01:48;;;;;;;2.75;2.00;;;;;;;;;;11195421;25;20029;-65
2024/04/14 23:06:52;;;;;;;7.68;1.95;;;;;;;;;;11189342;25;20397;-65
2024/04/14 23:11:52;;;;;;;2.93;2.37;;;;;;;;;;11189304;25;20025;-65
2024/04/14 23:16:52;;;;;;;4.93;2.15;;;;;;;;;;11185681;25;20372;-65
2024/04/14 23:21:55;;;;;;;4.28;2.10;;;;;;;;;;11188783;25;20041;-65
2024/04/14 23:26:55;;;;;;;5.20;2.53;;;;;;;;;;11184990;25;20105;-64
2024/04/14 23:31:56;;;;;;;4.45;2.35;;;;;;;;;;11183409;25;20030;-65
2024/04/14 23:36:59;;;;;;;2.72;2.10;;;;;;;;;;11187494;25;20042;-64
2024/04/14 23:42:00;;;;;;;3.60;2.17;;;;;;;;;;11183126;25;20030;-64
2024/04/14 23:47:00;;;;;;;5.65;2.38;;;;;;;;;;11140973;26;20034;-65
2024/04/14 23:52:03;;;;;;;6.75;2.75;;;;;;;;;;11141452;26;20033;-65
2024/04/14 23:57:03;;;;;;;4.97;2.90;;;;;;;;;;11147001;26;20030;-65
